Marquette, MI

12:29 PM EST on December 22, 2014 (GMT -0500)
Delta County | Change Station
CLOSE
Current Station
Airport
Location: Escanaba,
Elevation: 607 ft
Nearby Weather Stations
Active Advisory: Special Statement

Elev 607 ft 45.72 °N, 87.09 °W | Updated 14 minutes ago

Fog
Fog
36 °F
Feels Like 29 °F
N
8
Wind Variable Wind from SE

Today
High -- | Low -- °F
--% Chance of Precip.
Yesterday
High -- | Low -- °F
Precip. -- in
8:30 AM 5:05 PM
New Moon, 1% visible
Pressure 29.92 in
Visibility 4.0 miles
Clouds Overcast 1600 ft
Windchill 29 °F
Dew Point 30 °F
Humidity 81%
Rainfall 0.00 in
Snow Depth Not available.
UV 0 out of 12
Pollen .10 out of 12
Air Quality Not available.
Flu Activity Not available.
METAR KESC 221715Z AUTO 14007KT 4SM OVC016 02/M01 A2992 RMK AO1

More Conditions Fewer Conditions

Pressure 29.92 in
Visibility 4.0 miles
Clouds Overcast 1600 ft
Windchill 29 °F
Dew Point 30 °F
Humidity 81%
Rainfall 0.00 in
Snow Depth Not available.
UV 0 out of 12
Pollen .10 out of 12
Air Quality Not available.
Flu Activity Not available.
METAR KESC 221715Z AUTO 14007KT 4SM OVC016 02/M01 A2992 RMK AO1

More Conditions Fewer Conditions

10-Day Weather Forecast

Almanac

Astronomy

Dec. 22, 2014 Rise Set
Actual Time
Civil Twilight
Nautical Twilight
Astronomical Twilight
Moon
Length of Visible Light
Length of Day
Tomorrow will be .
, % of the Moon is Illuminated

Today's Extremes

State Highs State Lows

Community

WunderPhotos

Upload Photos

1,779,653 photos uploaded!

WunderBlogs® & News

Nearby

Air Quality

  Air Quality AQ Index Pollutant
Not available.

Snow Depth

Station Depth Elevation

Earthquake Activity

City Distance Mag. Time & Date
Minimum magnitude displayed is 2.5.

Coastal Water Temperatures

Place Temperature

Nearby Weather Stations